Time;durP1;ratioP1;P1;durP2;ratioP2;P2;SDS_P1;SDS_P2;PMS_P1;PMS_P2;Temp;Humidity;BMP_temperature;BMP_pressure;BME280_temperature;BME280_humidity;BME280_pressure;Samples;Min_cycle;Max_cycle;Signal;HPM_P1;HPM_P2
2022/01/15 00:00:16;;;;;;;13.10;9.70;;;;;;;8.41;47.80;101532.09;5050179;28;20459;-69
2022/01/15 00:02:43;;;;;;;11.80;8.95;;;;;;;8.42;47.60;101534.63;5049840;28;20413;-68
2022/01/15 00:05:12;;;;;;;11.43;8.57;;;;;;;8.47;47.33;101529.06;5049740;28;20409;-68
2022/01/15 00:07:39;;;;;;;11.90;9.43;;;;;;;8.52;47.19;101532.28;5049868;28;20519;-68
2022/01/15 00:10:08;;;;;;;11.68;8.90;;;;;;;8.38;47.37;101548.94;5049172;28;20424;-69
2022/01/15 00:12:39;;;;;;;12.55;9.30;;;;;;;8.49;47.14;101545.66;5049315;28;20419;-68
2022/01/15 00:15:08;;;;;;;13.88;9.32;;;;;;;8.52;46.94;101545.50;5049584;28;20432;-68
2022/01/15 00:17:46;;;;;;;13.65;9.77;;;;;;;8.47;46.93;101550.19;5048750;28;20423;-68
2022/01/15 00:20:19;;;;;;;11.07;8.70;;;;;;;8.45;47.07;101565.28;5049329;28;20910;-68
2022/01/15 00:22:47;;;;;;;13.00;9.27;;;;;;;8.57;46.43;101572.47;5048929;28;20417;-68
2022/01/15 00:25:14;;;;;;;12.98;10.00;;;;;;;8.50;46.44;101568.50;5049519;28;20474;-69
2022/01/15 00:27:42;;;;;;;11.07;8.10;;;;;;;8.47;46.49;101554.63;5048851;28;20416;-68
2022/01/15 00:30:09;;;;;;;10.73;8.48;;;;;;;8.39;46.54;101548.00;5048994;28;20416;-68
2022/01/15 00:32:37;;;;;;;10.48;8.50;;;;;;;8.42;46.64;101545.19;5048624;28;20512;-69
2022/01/15 00:35:04;;;;;;;11.10;8.70;;;;;;;8.29;46.83;101561.84;5048438;28;20507;-69
2022/01/15 00:37:33;;;;;;;11.25;8.57;;;;;;;8.35;46.49;101572.03;5049003;28;20417;-68
2022/01/15 00:40:01;;;;;;;11.63;8.70;;;;;;;8.31;46.88;101566.06;5031681;28;20409;-68
2022/01/15 00:42:30;;;;;;;11.77;8.10;;;;;;;8.30;46.60;101567.03;5049563;28;20419;-69
2022/01/15 00:44:58;;;;;;;10.95;8.40;;;;;;;8.31;46.71;101579.28;5049462;28;20787;-68
2022/01/15 00:47:30;;;;;;;11.43;7.93;;;;;;;8.41;46.31;101569.06;5048218;28;20447;-69
2022/01/15 00:50:00;;;;;;;10.63;8.00;;;;;;;8.31;46.61;101549.38;5048438;28;21350;-68
2022/01/15 00:52:27;;;;;;;9.10;7.55;;;;;;;8.34;46.38;101567.72;5048553;28;20499;-69
2022/01/15 00:54:56;;;;;;;10.68;7.65;;;;;;;8.25;46.58;101561.16;5048634;28;20499;-68
2022/01/15 00:57:23;;;;;;;10.43;8.10;;;;;;;8.29;46.69;101557.41;5049422;28;20412;-69
2022/01/15 00:59:51;;;;;;;11.05;8.98;;;;;;;8.28;46.55;101544.31;5049398;28;20451;-69
2022/01/15 01:02:18;;;;;;;10.48;8.00;;;;;;;8.27;46.62;101554.00;5048840;28;20863;-69
2022/01/15 01:04:45;;;;;;;12.25;8.80;;;;;;;8.26;46.68;101551.47;5047111;28;20993;-69
2022/01/15 01:07:12;;;;;;;10.82;8.85;;;;;;;8.28;46.61;101550.44;5048295;28;21273;-69
2022/01/15 01:09:48;;;;;;;9.90;8.07;;;;;;;8.16;46.75;101538.81;5048551;28;20420;-69
2022/01/15 01:12:28;;;;;;;11.77;8.68;;;;;;;8.21;47.00;101531.47;5046479;28;21024;-69
2022/01/15 01:20:36;;;;;;;10.97;8.60;;;;;;;8.14;47.02;101521.38;5048919;28;20411;-69
2022/01/15 01:23:03;;;;;;;11.05;8.52;;;;;;;8.10;47.19;101515.41;5048740;28;20810;-69
2022/01/15 01:25:35;;;;;;;11.55;8.65;;;;;;;8.15;47.10;101523.06;5049055;28;20421;-68
2022/01/15 01:28:08;;;;;;;12.63;9.00;;;;;;;8.12;47.26;101516.19;5048322;28;20419;-69
2022/01/15 01:30:42;;;;;;;12.95;9.10;;;;;;;8.05;47.50;101511.34;5047843;28;20495;-69
2022/01/15 01:33:28;;;;;;;12.05;9.57;;;;;;;8.05;47.72;101514.00;5048623;28;20432;-69
2022/01/15 01:36:15;;;;;;;12.65;9.48;;;;;;;8.00;47.74;101501.09;5048639;28;20432;-69
2022/01/15 01:38:50;;;;;;;13.80;9.80;;;;;;;8.03;47.69;101516.75;5020693;28;20412;-69
2022/01/15 01:41:19;;;;;;;12.50;9.30;;;;;;;7.99;47.63;101516.06;5048703;28;20416;-69
2022/01/15 01:43:54;;;;;;;11.77;9.67;;;;;;;7.98;47.73;101524.91;5048201;28;20462;-68
2022/01/15 01:46:35;;;;;;;13.03;10.00;;;;;;;8.00;47.81;101517.75;5048150;28;20505;-69
2022/01/15 01:49:03;;;;;;;12.13;9.70;;;;;;;7.85;48.17;101517.81;5048769;28;20419;-69
2022/01/15 01:51:33;;;;;;;12.90;9.43;;;;;;;7.88;48.05;101522.91;5048763;28;20408;-69
2022/01/15 01:54:02;;;;;;;13.70;9.27;;;;;;;7.81;48.58;101520.63;5052165;28;20455;-69
2022/01/15 01:56:29;;;;;;;10.68;9.18;;;;;;;7.91;48.11;101541.22;5051988;28;20435;-69
2022/01/15 01:58:58;;;;;;;12.18;9.52;;;;;;;7.99;47.70;101539.81;5052079;28;20499;-69
2022/01/15 02:01:26;;;;;;;11.77;9.30;;;;;;;7.95;47.83;101540.94;5052429;28;20408;-69
2022/01/15 02:03:54;;;;;;;12.20;9.30;;;;;;;7.92;47.77;101527.91;5052142;28;20795;-69
2022/01/15 02:06:21;;;;;;;13.07;10.27;;;;;;;7.87;47.96;101514.16;5052146;28;20495;-69
2022/01/15 02:08:48;;;;;;;10.77;8.57;;;;;;;7.82;47.72;101517.03;5051682;28;20495;-69
2022/01/15 02:11:16;;;;;;;11.70;9.27;;;;;;;7.83;47.73;101505.56;5051879;28;20420;-69
2022/01/15 02:13:46;;;;;;;11.30;9.52;;;;;;;7.81;47.78;101502.16;5050573;28;20446;-68
2022/01/15 02:16:16;;;;;;;15.13;9.48;;;;;;;7.78;47.81;101515.53;5051346;28;20515;-69
2022/01/15 02:18:43;;;;;;;11.38;9.20;;;;;;;7.89;47.48;101538.66;5051723;28;21487;-69
2022/01/15 02:23:57;;;;;;;12.07;9.93;;;;;;;7.85;47.63;101560.00;5051540;28;20435;-70
2022/01/15 02:26:26;;;;;;;14.45;10.38;;;;;;;7.90;47.56;101572.00;5051338;28;20417;-70
2022/01/15 02:28:56;;;;;;;13.93;10.65;;;;;;;7.89;47.76;101554.50;5051473;28;20413;-69
2022/01/15 02:31:24;;;;;;;13.68;10.68;;;;;;;7.83;47.87;101583.88;5050466;28;20500;-69
2022/01/15 02:33:53;;;;;;;12.27;10.73;;;;;;;7.79;48.15;101595.53;5050268;28;20412;-69
2022/01/15 02:36:23;;;;;;;12.13;10.38;;;;;;;7.78;48.07;101604.38;5051207;28;20432;-69
2022/01/15 02:38:51;;;;;;;13.45;10.98;;;;;;;7.82;48.15;101613.81;5027438;28;20405;-69
2022/01/15 02:41:27;;;;;;;14.55;11.20;;;;;;;7.80;48.27;101603.34;5051224;28;20785;-69
2022/01/15 02:43:56;;;;;;;14.98;11.00;;;;;;;7.86;48.29;101611.84;5051284;28;20516;-69
2022/01/15 02:46:35;;;;;;;14.10;10.98;;;;;;;7.87;48.43;101624.97;5051503;28;20500;-69
2022/01/15 02:49:04;;;;;;;12.25;10.25;;;;;;;7.78;48.74;101621.03;5051602;28;20510;-69
2022/01/15 02:51:34;;;;;;;15.23;10.48;;;;;;;7.78;48.57;101625.47;5051148;28;20409;-69
2022/01/15 02:54:01;;;;;;;13.50;10.80;;;;;;;7.75;48.68;101620.38;5051566;28;20444;-69
2022/01/15 02:56:32;;;;;;;13.63;10.90;;;;;;;7.76;48.77;101635.25;5051488;28;20428;-68
2022/01/15 02:59:00;;;;;;;13.65;11.43;;;;;;;7.72;48.93;101652.19;5051261;28;20470;-69
2022/01/15 03:01:27;;;;;;;13.40;11.63;;;;;;;7.64;49.29;101660.53;5051169;28;20941;-68
2022/01/15 03:03:54;;;;;;;15.55;11.77;;;;;;;7.72;49.08;101671.50;5049532;28;20408;-70
2022/01/15 03:06:21;;;;;;;14.20;12.07;;;;;;;7.76;49.07;101670.41;5050684;28;20424;-69
2022/01/15 03:08:52;;;;;;;16.90;13.20;;;;;;;7.75;48.77;101668.72;5049208;28;20416;-70
2022/01/15 03:11:20;;;;;;;19.92;14.10;;;;;;;7.72;49.04;101675.94;5050050;28;20989;-69
2022/01/15 03:13:47;;;;;;;16.85;12.80;;;;;;;7.72;49.01;101689.13;5049965;28;20405;-69
2022/01/15 03:16:17;;;;;;;14.98;12.90;;;;;;;7.69;49.13;101695.44;5050803;28;20508;-69
2022/01/15 03:18:44;;;;;;;15.55;12.68;;;;;;;7.70;49.06;101707.66;5051453;28;20423;-69
2022/01/15 03:21:12;;;;;;;15.32;13.20;;;;;;;7.74;49.04;101716.25;5051151;28;20520;-69
2022/01/15 03:23:40;;;;;;;16.55;12.55;;;;;;;7.71;49.06;101714.66;5051150;28;20447;-69
2022/01/15 03:26:09;;;;;;;16.30;13.50;;;;;;;7.69;49.03;101711.25;5050731;28;20412;-68
2022/01/15 03:28:36;;;;;;;16.60;13.50;;;;;;;7.66;49.05;101711.41;5050525;28;20408;-69
2022/01/15 03:31:03;;;;;;;20.03;15.67;;;;;;;7.68;49.11;101706.91;5050362;28;20996;-69
2022/01/15 03:33:30;;;;;;;23.48;16.98;;;;;;;7.61;49.29;101724.84;5050147;28;20495;-69
2022/01/15 03:35:57;;;;;;;31.47;25.37;;;;;;;7.53;49.39;101720.94;5050576;28;20412;-69
2022/01/15 03:38:25;;;;;;;38.70;28.65;;;;;;;7.48;49.40;101725.59;5039168;28;20409;-71
2022/01/15 03:40:54;;;;;;;22.77;17.23;;;;;;;7.33;49.70;101735.19;5041375;28;20416;-68
2022/01/15 03:43:23;;;;;;;68.07;62.13;;;;;;;7.41;49.44;101736.47;5050595;28;20416;-68
2022/01/15 03:45:50;;;;;;;27.48;24.70;;;;;;;7.47;49.33;101747.63;5050360;28;20929;-68
2022/01/15 03:48:17;;;;;;;27.30;24.63;;;;;;;7.47;49.01;101743.19;5050340;28;20503;-68
2022/01/15 03:50:44;;;;;;;18.53;16.13;;;;;;;7.17;49.67;101745.66;5050562;28;20491;-68
2022/01/15 03:53:11;;;;;;;20.60;18.55;;;;;;;7.09;50.04;101742.56;5050439;28;20459;-69
2022/01/15 03:55:38;;;;;;;18.65;16.63;;;;;;;7.08;49.82;101741.72;5050197;28;20921;-69
2022/01/15 03:58:05;;;;;;;17.47;15.47;;;;;;;7.16;49.67;101742.19;5049171;28;20443;-69
2022/01/15 04:00:33;;;;;;;17.15;14.00;;;;;;;6.99;50.17;101750.09;5048889;28;21014;-68
2022/01/15 04:03:02;;;;;;;17.33;14.87;;;;;;;7.04;49.88;101756.00;5049574;28;20811;-68
2022/01/15 04:05:30;;;;;;;23.70;21.20;;;;;;;7.12;49.73;101748.53;5049418;28;20417;-68
2022/01/15 04:07:57;;;;;;;20.42;16.92;;;;;;;7.06;49.86;101748.88;5049771;28;20420;-68
2022/01/15 04:10:23;;;;;;;25.15;22.30;;;;;;;6.96;50.06;101751.13;5049998;28;20417;-68
2022/01/15 04:12:50;;;;;;;25.65;22.33;;;;;;;6.92;50.01;101757.47;5049844;28;20409;-68
2022/01/15 04:15:18;;;;;;;24.75;21.30;;;;;;;6.92;50.03;101756.63;5048327;28;20499;-68
2022/01/15 04:17:48;;;;;;;25.35;21.73;;;;;;;6.83;50.40;101768.47;5049482;28;20432;-68
2022/01/15 04:20:19;;;;;;;25.15;22.42;;;;;;;6.76;50.47;101770.56;5049384;28;20504;-69
2022/01/15 04:22:46;;;;;;;25.13;22.40;;;;;;;6.68;50.82;101774.50;5049282;28;20456;-68
2022/01/15 04:25:13;;;;;;;25.85;23.05;;;;;;;6.82;50.39;101778.16;5049089;28;21014;-68
2022/01/15 04:27:42;;;;;;;22.30;18.83;;;;;;;6.69;50.67;101779.72;5049695;28;20791;-68
2022/01/15 04:30:12;;;;;;;24.00;21.42;;;;;;;6.66;50.73;101779.00;5050028;28;20813;-68
2022/01/15 04:32:39;;;;;;;37.78;34.38;;;;;;;6.65;50.80;101778.16;5049365;28;20428;-69
2022/01/15 04:35:08;;;;;;;25.38;22.15;;;;;;;6.64;50.72;101791.38;5048266;28;20497;-70
2022/01/15 04:37:39;;;;;;;26.60;23.70;;;;;;;6.67;50.63;101793.84;5049508;28;20535;-68
2022/01/15 04:40:08;;;;;;;28.35;25.27;;;;;;;6.61;50.87;101805.56;5031845;28;20924;-69
2022/01/15 04:42:35;;;;;;;21.40;18.70;;;;;;;6.62;50.74;101805.47;5049184;28;20412;-68
2022/01/15 04:45:03;;;;;;;25.88;23.20;;;;;;;6.54;51.00;101804.13;5049155;28;20511;-69
2022/01/15 04:47:31;;;;;;;24.37;20.17;;;;;;;6.50;51.12;101798.16;5049374;28;20416;-68
2022/01/15 04:49:58;;;;;;;24.50;20.20;;;;;;;6.46;51.22;101795.75;5049379;28;20847;-69
2022/01/15 04:52:27;;;;;;;25.90;21.92;;;;;;;6.39;51.36;101803.09;5049070;28;20936;-68
2022/01/15 04:54:54;;;;;;;26.65;23.27;;;;;;;6.43;51.29;101807.31;5048495;28;20492;-70
2022/01/15 04:57:21;;;;;;;32.55;26.45;;;;;;;6.48;51.13;101810.56;5049169;28;20513;-69
2022/01/15 04:59:48;;;;;;;34.20;26.50;;;;;;;6.51;51.23;101806.91;5049233;28;20413;-68
2022/01/15 05:02:15;;;;;;;30.48;24.42;;;;;;;6.40;51.44;101815.31;5047841;28;20412;-68
2022/01/15 05:04:42;;;;;;;30.90;27.17;;;;;;;6.52;51.04;101827.91;5047545;28;20439;-68
2022/01/15 05:07:09;;;;;;;28.80;24.67;;;;;;;6.48;51.15;101818.44;5047693;28;20511;-68
2022/01/15 05:09:37;;;;;;;28.65;23.40;;;;;;;6.32;51.61;101823.59;5048539;28;20413;-68
2022/01/15 05:12:10;;;;;;;41.50;37.25;;;;;;;6.31;51.72;101823.69;5048245;28;20408;-69
2022/01/15 05:14:37;;;;;;;48.05;42.83;;;;;;;6.30;51.60;101828.06;5048781;28;20412;-69
2022/01/15 05:17:05;;;;;;;36.88;29.27;;;;;;;6.25;51.87;101827.44;5048495;28;20439;-68
2022/01/15 05:19:32;;;;;;;33.38;28.42;;;;;;;6.28;51.82;101829.06;5048681;28;20495;-68
2022/01/15 05:21:59;;;;;;;24.85;21.45;;;;;;;6.26;51.70;101837.03;5048735;28;20495;-69
2022/01/15 05:24:29;;;;;;;24.70;20.45;;;;;;;6.19;51.95;101841.72;5047639;28;20488;-68
2022/01/15 05:26:57;;;;;;;36.42;32.88;;;;;;;6.10;52.13;101855.28;5051604;28;20474;-68
2022/01/15 05:29:25;;;;;;;23.35;19.13;;;;;;;6.22;51.96;101854.75;5053042;28;20496;-68
2022/01/15 05:31:51;;;;;;;27.60;24.75;;;;;;;6.18;51.81;101866.34;5052100;28;20768;-68
2022/01/15 05:34:19;;;;;;;25.05;22.00;;;;;;;6.15;52.07;101868.28;5051718;28;20412;-68
2022/01/15 05:36:46;;;;;;;24.20;21.27;;;;;;;6.10;52.53;101878.97;5051557;28;20428;-69
2022/01/15 05:39:13;;;;;;;27.05;23.95;;;;;;;6.22;52.69;101880.19;5038380;28;20918;-69
2022/01/15 05:41:41;;;;;;;28.70;24.15;;;;;;;6.12;52.49;101882.41;5052332;28;20915;-68
2022/01/15 05:44:09;;;;;;;25.45;22.75;;;;;;;6.13;52.20;101878.00;5052076;28;20423;-69
2022/01/15 05:46:36;;;;;;;24.23;21.63;;;;;;;6.09;52.05;101890.44;5052407;28;20951;-68
2022/01/15 05:49:04;;;;;;;25.40;22.80;;;;;;;5.89;52.49;101895.72;5051937;28;20783;-68
2022/01/15 05:51:31;;;;;;;33.17;29.60;;;;;;;6.06;52.26;101900.25;5052452;28;20415;-68
2022/01/15 05:53:58;;;;;;;32.35;26.00;;;;;;;6.01;52.21;101911.81;5050688;28;20412;-69
2022/01/15 05:56:25;;;;;;;45.00;36.20;;;;;;;5.93;52.39;101920.97;5052439;28;20419;-68
2022/01/15 05:58:52;;;;;;;40.57;33.07;;;;;;;5.96;52.29;101921.72;5052080;28;20416;-68
2022/01/15 06:01:21;;;;;;;42.42;35.28;;;;;;;6.15;51.86;101924.38;5052102;28;20413;-68
2022/01/15 06:03:48;;;;;;;40.38;31.30;;;;;;;6.12;51.80;101924.50;5052211;28;20404;-68
2022/01/15 06:06:15;;;;;;;34.08;26.95;;;;;;;6.20;51.60;101926.78;5052399;28;20427;-68
2022/01/15 06:08:42;;;;;;;38.70;33.90;;;;;;;6.48;50.87;101921.13;5051804;28;20511;-68
2022/01/15 06:11:10;;;;;;;30.90;27.57;;;;;;;7.16;49.44;101924.03;5052073;28;20411;-68
2022/01/15 06:13:37;;;;;;;23.23;20.03;;;;;;;7.44;48.31;101933.22;5051548;28;20470;-68
2022/01/15 06:16:04;;;;;;;21.15;18.15;;;;;;;7.98;47.20;101943.63;5052267;28;20427;-68
2022/01/15 06:18:33;;;;;;;19.35;16.80;;;;;;;8.58;45.49;101945.75;5052015;28;20841;-68
2022/01/15 06:21:00;;;;;;;19.03;16.47;;;;;;;9.34;44.12;101937.91;5051072;28;20842;-68
2022/01/15 06:23:27;;;;;;;20.88;18.60;;;;;;;10.05;42.29;101948.75;5050577;28;20412;-68
2022/01/15 06:25:54;;;;;;;29.05;26.05;;;;;;;10.94;40.29;101954.66;5052687;28;20872;-68
2022/01/15 06:28:21;;;;;;;29.13;23.83;;;;;;;11.65;38.85;101951.81;5050528;28;20497;-68
2022/01/15 06:30:48;;;;;;;26.40;22.35;;;;;;;12.53;37.13;101960.75;5051811;28;20495;-70
2022/01/15 06:33:15;;;;;;;32.95;29.75;;;;;;;12.86;36.17;101958.44;5051722;28;20856;-69
2022/01/15 06:35:43;;;;;;;23.77;21.33;;;;;;;13.95;34.26;101959.13;5051251;28;20842;-68
2022/01/15 06:38:11;;;;;;;22.37;20.07;;;;;;;14.31;33.52;101964.34;5046042;28;20439;-72
2022/01/15 06:40:38;;;;;;;21.83;18.65;;;;;;;14.89;32.76;101977.56;5042122;28;20853;-69
2022/01/15 06:43:05;;;;;;;22.35;20.05;;;;;;;15.67;31.51;101981.75;5051034;28;20495;-69
2022/01/15 06:45:34;;;;;;;29.10;26.33;;;;;;;16.33;30.19;101988.66;5050922;28;20466;-68
2022/01/15 06:48:01;;;;;;;25.73;23.07;;;;;;;16.90;29.05;101981.84;5050602;28;20937;-69
2022/01/15 06:50:28;;;;;;;23.35;21.05;;;;;;;17.46;28.04;101991.06;5050899;28;20985;-69
2022/01/15 06:52:58;;;;;;;24.17;21.88;;;;;;;18.13;27.32;101991.97;5050712;28;20412;-69
2022/01/15 06:55:25;;;;;;;36.25;32.88;;;;;;;19.15;25.78;101993.75;5051869;28;20499;-69
2022/01/15 06:57:52;;;;;;;34.88;31.60;;;;;;;19.40;25.22;101992.16;5051711;28;20506;-68
2022/01/15 07:00:19;;;;;;;38.42;34.83;;;;;;;20.46;24.16;102004.69;5050966;28;20505;-69
2022/01/15 07:02:46;;;;;;;28.77;25.88;;;;;;;21.26;23.12;102007.00;5051446;28;20444;-69
2022/01/15 07:05:13;;;;;;;30.85;27.60;;;;;;;22.14;21.96;102017.13;5051405;28;20455;-69
2022/01/15 07:07:44;;;;;;;26.77;23.92;;;;;;;22.39;22.00;102012.53;5051046;28;20975;-70
2022/01/15 07:10:13;;;;;;;27.77;24.67;;;;;;;23.67;20.80;102024.81;5050892;28;21008;-70
2022/01/15 07:12:40;;;;;;;24.95;22.42;;;;;;;23.85;19.97;102021.00;5050157;28;20488;-70
2022/01/15 07:15:08;;;;;;;25.08;22.38;;;;;;;23.88;19.67;102017.91;5050809;28;20409;-69
2022/01/15 07:17:41;;;;;;;21.80;19.50;;;;;;;24.29;19.70;102026.47;5050112;28;20472;-70
2022/01/15 07:20:09;;;;;;;21.70;19.40;;;;;;;24.26;19.44;102029.53;5050964;28;20409;-70
2022/01/15 07:22:36;;;;;;;22.30;20.00;;;;;;;25.62;17.93;102035.38;5050853;28;20416;-70
2022/01/15 07:25:04;;;;;;;23.30;20.80;;;;;;;25.92;17.73;102038.78;5050536;28;20508;-70
2022/01/15 07:27:32;;;;;;;24.50;21.65;;;;;;;26.48;17.31;102039.75;5050635;28;20412;-70
2022/01/15 07:30:01;;;;;;;23.30;20.95;;;;;;;26.90;16.76;102030.56;5050026;28;20420;-70
2022/01/15 07:32:28;;;;;;;26.45;23.77;;;;;;;27.09;16.57;102031.69;5050515;28;20821;-70
2022/01/15 07:34:55;;;;;;;23.05;20.75;;;;;;;28.07;15.91;102043.97;5050444;28;20421;-70
2022/01/15 07:37:22;;;;;;;25.60;23.17;;;;;;;28.60;15.40;102045.75;5050242;28;20515;-69
2022/01/15 07:39:49;;;;;;;23.17;21.00;;;;;;;28.99;14.83;102049.38;5034085;28;20501;-71
2022/01/15 07:42:16;;;;;;;24.27;21.95;;;;;;;29.54;14.61;102049.66;5050115;28;20413;-70
2022/01/15 07:44:44;;;;;;;28.73;25.92;;;;;;;28.99;14.66;102047.47;5050305;28;20819;-70
2022/01/15 07:47:12;;;;;;;26.23;23.65;;;;;;;29.56;14.50;102061.19;5050632;28;20412;-70
2022/01/15 07:49:39;;;;;;;29.02;26.15;;;;;;;30.12;13.69;102056.78;5049444;28;20478;-70
2022/01/15 07:52:06;;;;;;;24.88;22.48;;;;;;;30.51;13.58;102043.75;5049717;28;20929;-70
2022/01/15 07:54:33;;;;;;;22.23;19.85;;;;;;;30.34;13.58;102065.41;5050164;28;20444;-70
2022/01/15 07:57:00;;;;;;;21.37;19.17;;;;;;;31.23;13.15;102063.06;5050042;28;20491;-70
2022/01/15 07:59:28;;;;;;;18.88;16.98;;;;;;;31.99;12.51;102071.53;5049829;28;20451;-70
2022/01/15 08:01:56;;;;;;;18.50;16.80;;;;;;;32.46;12.07;102066.09;5050576;28;20424;-71
2022/01/15 08:04:23;;;;;;;18.87;16.60;;;;;;;33.27;11.66;102060.59;5049437;28;20491;-70
2022/01/15 08:06:50;;;;;;;17.17;15.57;;;;;;;32.68;11.75;102065.44;5050264;28;20451;-70
2022/01/15 08:09:17;;;;;;;19.10;17.40;;;;;;;32.67;11.65;102064.63;5049941;28;20504;-70
2022/01/15 08:11:44;;;;;;;18.38;16.55;;;;;;;32.94;11.30;102067.63;5049759;28;20495;-70
2022/01/15 08:14:11;;;;;;;15.37;13.87;;;;;;;33.49;10.88;102076.34;5048329;28;20496;-69
2022/01/15 08:16:38;;;;;;;18.38;16.27;;;;;;;33.62;10.82;102088.94;5050177;28;21005;-70
2022/01/15 08:19:07;;;;;;;16.40;14.90;;;;;;;32.92;11.08;102097.22;5049758;28;20468;-69
2022/01/15 08:21:34;;;;;;;21.30;15.20;;;;;;;33.92;10.59;102103.22;5049388;28;20996;-70
2022/01/15 08:24:00;;;;;;;16.55;13.98;;;;;;;34.39;10.11;102102.00;5049507;28;20503;-70
2022/01/15 08:26:27;;;;;;;18.80;15.77;;;;;;;33.87;10.37;102105.03;5049617;28;20976;-70
2022/01/15 08:28:54;;;;;;;14.82;13.48;;;;;;;33.19;10.52;102104.09;5049614;28;20448;-69
2022/01/15 08:31:21;;;;;;;15.50;14.00;;;;;;;33.08;10.55;102103.03;5049538;28;20417;-70
2022/01/15 08:33:48;;;;;;;16.27;14.77;;;;;;;34.12;10.12;102110.09;5049540;28;20421;-70
2022/01/15 08:36:17;;;;;;;13.77;12.55;;;;;;;33.43;10.24;102107.53;5048974;28;20970;-70
2022/01/15 08:38:44;;;;;;;16.80;15.15;;;;;;;34.74;9.49;102106.34;5034778;28;20507;-69
2022/01/15 08:41:13;;;;;;;18.43;15.17;;;;;;;35.05;9.21;102107.50;5049366;28;20418;-69
2022/01/15 08:43:41;;;;;;;15.82;14.30;;;;;;;34.44;9.34;102117.75;5049722;28;20419;-70
2022/01/15 08:46:08;;;;;;;16.70;14.98;;;;;;;34.45;9.42;102125.75;5049286;28;20994;-69
2022/01/15 08:48:35;;;;;;;22.02;16.33;;;;;;;33.86;9.30;102123.44;5049381;28;20452;-70
2022/01/15 08:51:02;;;;;;;21.30;18.05;;;;;;;34.36;9.24;102126.44;5049644;28;20470;-69
2022/01/15 08:53:30;;;;;;;15.52;13.93;;;;;;;34.33;8.88;102130.53;5049065;28;20417;-69
2022/01/15 08:55:57;;;;;;;17.70;14.65;;;;;;;33.56;9.52;102120.13;5048074;28;20845;-70
2022/01/15 08:58:25;;;;;;;18.92;16.92;;;;;;;34.47;9.10;102125.47;5048835;28;20511;-69
2022/01/15 09:00:54;;;;;;;27.33;17.40;;;;;;;33.80;9.59;102134.59;5048491;28;20459;-69
2022/01/15 09:03:22;;;;;;;19.52;14.52;;;;;;;34.94;8.98;102118.66;5047742;28;20415;-71
2022/01/15 09:05:50;;;;;;;14.80;12.13;;;;;;;35.02;8.50;102126.50;5047700;28;20412;-69
2022/01/15 09:08:17;;;;;;;15.57;13.18;;;;;;;34.20;9.15;102128.13;5049033;28;20914;-70
2022/01/15 09:10:46;;;;;;;14.30;12.37;;;;;;;33.73;9.26;102121.03;5048774;28;20412;-70
2022/01/15 09:13:13;;;;;;;15.57;14.07;;;;;;;33.85;9.34;102132.78;5048774;28;20882;-70
2022/01/15 09:15:40;;;;;;;15.50;13.70;;;;;;;34.33;9.16;102133.28;5049099;28;20508;-70
2022/01/15 09:18:07;;;;;;;13.20;11.90;;;;;;;35.27;8.35;102126.78;5048994;28;20507;-69
2022/01/15 09:20:34;;;;;;;14.90;12.07;;;;;;;35.20;8.59;102130.84;5049004;28;20419;-70
2022/01/15 09:23:01;;;;;;;15.68;12.65;;;;;;;34.98;8.56;102126.16;5049025;28;20413;-70
2022/01/15 09:25:28;;;;;;;14.32;12.98;;;;;;;33.77;9.33;102129.59;5049063;28;20451;-70
2022/01/15 09:30:41;;;;;;;16.23;12.75;;;;;;;34.16;9.11;102121.47;5048862;28;20424;-70
2022/01/15 09:33:08;;;;;;;14.80;13.13;;;;;;;34.46;8.84;102110.88;5050580;28;20512;-70
2022/01/15 09:35:37;;;;;;;16.50;12.70;;;;;;;34.89;8.49;102112.00;5048628;28;20440;-70
2022/01/15 09:38:04;;;;;;;21.15;16.10;;;;;;;32.99;9.69;102101.72;5048797;28;21192;-69
2022/01/15 09:40:32;;;;;;;13.52;12.13;;;;;;;35.03;8.87;102106.13;5048869;28;20421;-70
2022/01/15 09:43:00;;;;;;;17.05;15.35;;;;;;;35.86;8.12;102103.91;5049144;28;20420;-70
2022/01/15 09:45:27;;;;;;;16.50;14.63;;;;;;;35.41;8.29;102107.91;5049014;28;20417;-69
2022/01/15 09:47:58;;;;;;;15.60;13.35;;;;;;;33.75;9.01;102096.03;5048629;28;20424;-70
2022/01/15 09:50:26;;;;;;;25.85;18.63;;;;;;;34.85;8.72;102102.59;5048803;28;20423;-70
2022/01/15 09:52:54;;;;;;;15.50;13.93;;;;;;;35.19;8.44;102096.13;5049239;28;20496;-70
2022/01/15 09:55:21;;;;;;;15.13;13.52;;;;;;;34.24;8.77;102097.09;5049260;28;20405;-70
2022/01/15 09:57:50;;;;;;;17.77;14.45;;;;;;;31.61;10.32;102080.19;5040732;28;20445;-71
2022/01/15 10:00:20;;;;;;;21.83;16.42;;;;;;;30.51;10.98;102082.88;5043541;28;20412;-68
2022/01/15 10:02:49;;;;;;;13.38;12.07;;;;;;;34.04;9.07;102096.78;5048624;28;20409;-69
2022/01/15 10:05:18;;;;;;;12.33;11.23;;;;;;;34.42;8.70;102089.66;5048398;28;20417;-68
2022/01/15 10:07:56;;;;;;;15.68;13.55;;;;;;;33.34;9.39;102082.41;5048510;28;20419;-69
2022/01/15 10:10:25;;;;;;;32.20;20.10;;;;;;;31.92;10.00;102082.63;5047354;28;20444;-69
2022/01/15 10:12:52;;;;;;;20.40;17.98;;;;;;;33.17;9.68;102087.00;5048380;28;20421;-69
2022/01/15 10:15:21;;;;;;;19.02;15.18;;;;;;;31.56;10.49;102083.66;5050053;28;20910;-70
2022/01/15 10:17:49;;;;;;;17.80;13.57;;;;;;;31.94;10.33;102076.94;5051198;28;20496;-69
2022/01/15 10:20:18;;;;;;;17.80;13.57;;;;;;;32.33;10.19;102069.06;5051108;28;20448;-69
2022/01/15 10:22:46;;;;;;;23.35;15.57;;;;;;;31.80;10.24;102068.09;5051896;28;20482;-69
2022/01/15 10:25:19;;;;;;;14.80;13.40;;;;;;;33.66;9.42;102063.47;5050765;28;20417;-70
2022/01/15 10:27:47;;;;;;;18.35;16.45;;;;;;;33.14;9.45;102066.38;5049793;28;20945;-69
2022/01/15 10:30:16;;;;;;;22.13;19.83;;;;;;;34.54;8.44;102062.03;5051771;28;20497;-70
2022/01/15 10:32:56;;;;;;;18.83;15.75;;;;;;;32.48;9.70;102058.44;5050933;28;21040;-69
2022/01/15 10:35:24;;;;;;;22.55;14.43;;;;;;;33.06;9.64;102056.59;5050172;28;20470;-69
2022/01/15 10:37:53;;;;;;;17.23;13.63;;;;;;;32.72;9.71;102059.22;5049535;28;21120;-69
2022/01/15 10:40:22;;;;;;;15.83;13.03;;;;;;;31.63;10.26;102059.75;5049599;28;20459;-69
2022/01/15 10:42:58;;;;;;;13.50;11.43;;;;;;;31.41;10.48;102058.56;5051550;28;20491;-69
2022/01/15 10:45:26;;;;;;;20.05;14.30;;;;;;;30.35;10.90;102045.19;5051580;28;20412;-69
2022/01/15 10:47:56;;;;;;;24.60;17.67;;;;;;;30.38;11.20;102055.69;5051212;28;20416;-69
2022/01/15 10:50:26;;;;;;;27.42;17.05;;;;;;;28.44;12.05;102050.59;5050754;28;20416;-69
2022/01/15 10:52:54;;;;;;;19.05;16.02;;;;;;;29.03;12.04;102045.97;5050994;28;20918;-69
2022/01/15 10:55:26;;;;;;;25.45;15.88;;;;;;;31.00;10.72;102038.31;5051150;28;20500;-69
2022/01/15 10:57:59;;;;;;;24.35;16.70;;;;;;;30.57;11.05;102039.28;5039656;28;20405;-74
2022/01/15 11:00:27;;;;;;;15.38;12.65;;;;;;;30.84;11.23;102043.38;5047956;28;20427;-68
2022/01/15 11:02:59;;;;;;;14.88;13.40;;;;;;;31.72;10.53;102030.91;5050919;28;20488;-69
2022/01/15 11:05:34;;;;;;;15.85;12.48;;;;;;;30.95;10.81;102028.91;5050433;28;20408;-69
2022/01/15 11:08:07;;;;;;;41.97;33.17;;;;;;;31.06;11.20;102031.94;5049329;28;20495;-69
2022/01/15 11:10:43;;;;;;;38.75;26.02;;;;;;;28.95;12.10;102029.84;5049744;28;20420;-70
2022/01/15 11:13:12;;;;;;;38.83;34.63;;;;;;;29.60;12.26;102042.50;5049893;28;20416;-69
2022/01/15 11:15:40;;;;;;;44.40;39.72;;;;;;;30.16;11.59;102031.50;5050007;28;20413;-70
2022/01/15 11:18:12;;;;;;;27.55;24.25;;;;;;;29.04;11.69;102039.47;5050949;28;20491;-69
2022/01/15 11:20:45;;;;;;;19.30;17.40;;;;;;;28.49;12.17;102034.44;5050839;28;20495;-69
2022/01/15 11:23:13;;;;;;;16.23;14.75;;;;;;;28.62;11.93;102030.84;5050697;28;20504;-69
2022/01/15 11:25:41;;;;;;;13.05;11.75;;;;;;;26.72;13.02;102019.44;5050934;28;20420;-69
2022/01/15 11:28:09;;;;;;;13.68;12.15;;;;;;;26.35;13.52;102024.22;5051022;28;20462;-70
2022/01/15 11:30:36;;;;;;;19.08;12.25;;;;;;;26.69;13.43;102012.53;5050525;28;20499;-68
2022/01/15 11:33:04;;;;;;;13.85;12.13;;;;;;;26.36;13.13;102012.34;5050539;28;20503;-69